Список аэропортов
Фактическая погода:

26 апреля, 12:00
Температура: +11°C (+8.8*)
Ветер: юго-западный 5 м/с
Давление: *754 мм
Без существ. явл.
Время (МСК)Темп. СВетерВлажностьДавлениеОблачностьОсадки
08:00+5Ю, 3 м/с56%1006 гПаоблачно
09:00+7Ю, 3 м/с47%1006 гПаоблачно
10:00+8ЮЗ, 4 м/с40%1006 гПаоблачно
11:00+9ЮЗ, 4 м/с39%1006 гПаясно
12:00+9ЮЗ, 4 м/с38%1006 гПаясно
13:00+9ЮЗ, 4 м/с37%1006 гПаясно
14:00+8ЮЗ, 4 м/с40%1006 гПаясно
15:00+8Ю, 3 м/с44%1005 гПаясно
16:00+7Ю, 3 м/с51%1005 гПаясно
17:00+5Ю, 2 м/с60%1005 гПаоблачно
18:00+4Ю, 2 м/с67%1006 гПас прояснениями
19:00+2Ю, 2 м/с73%1006 гПамалооблачно
20:00+1Ю, 3 м/с75%1006 гПас прояснениями
21:00+1Ю, 3 м/с75%1006 гПаоблачно
22:00+2Ю, 3 м/с74%1006 гПаоблачно
23:00+1Ю, 3 м/с76%1006 гПаоблачно
27 апреля
00:00+1Ю, 3 м/с78%1006 гПаоблачно
01:00-0ЮВ, 3 м/с83%1006 гПамалооблачно
02:00-2ЮВ, 3 м/с88%1006 гПамалооблачно
03:00-2ЮВ, 3 м/с88%1005 гПас прояснениями
04:00-1ЮВ, 3 м/с84%1005 гПаоблачно
05:000ЮВ, 4 м/с78%1005 гПаоблачно
06:00+2ЮВ, 4 м/с73%1005 гПаоблачно
07:00+3ЮВ, 4 м/с67%1005 гПаоблачно
08:00+5ЮВ, 3 м/с62%1005 гПаоблачно
09:00+6ЮВ, 4 м/с56%1005 гПаоблачно
10:00+7Ю, 5 м/с52%1005 гПаоблачно
11:00+5Ю, 4 м/с73%1005 гПаоблачносл. дождь
12:00+6Ю, 5 м/с72%1005 гПаоблачносл. дождь
13:00+6Ю, 5 м/с75%1005 гПаоблачносл. дождь
14:00+6Ю, 5 м/с74%1005 гПаоблачно
15:00+6Ю, 4 м/с76%1005 гПаоблачно
16:00+5Ю, 4 м/с78%1005 гПаоблачно
17:00+4Ю, 3 м/с82%1006 гПас прояснениями
18:00+4Ю, 2 м/с86%1006 гПас прояснениями
19:00+2ЮВ, 2 м/с92%1005 гПас прояснениями
20:00+1Ю, 1 м/с97%1006 гПаоблачно
21:00+1ЮВ, 1 м/с99%1006 гПаоблачно
22:00+1ЮВ, 1 м/с99%1006 гПаоблачно
23:00+1ЮВ, 1 м/с99%1005 гПаоблачно
28 апреля
00:00+1ЮВ, 2 м/с99%1005 гПаоблачно
01:00+1ЮВ, 2 м/с99%1005 гПаоблачносл. снег
02:00+1ЮВ, 1 м/с99%1005 гПаоблачно
03:00+1ЮВ, 1 м/с99%1005 гПаоблачно
04:00+1ЮВ, 2 м/с98%1005 гПаоблачно
05:00+1В, 1 м/с98%1004 гПаоблачно
06:00+2ЮВ, 2 м/с97%1004 гПаоблачно
07:00+2ЮВ, 2 м/с95%1004 гПаоблачно
08:00+3ЮВ, 1 м/с93%1004 гПаоблачно